sensor_id;sensor_type;location;lat;lon;timestamp;temperature;humidity
52245;DHT22;55759;51.586;-1.758;2023-07-13T00:00:52;15.90;82.00
52245;DHT22;55759;51.586;-1.758;2023-07-13T00:03:18;15.80;81.90
52245;DHT22;55759;51.586;-1.758;2023-07-13T00:05:44;15.80;81.60
52245;DHT22;55759;51.586;-1.758;2023-07-13T00:08:09;15.90;82.30
52245;DHT22;55759;51.586;-1.758;2023-07-13T00:10:40;15.80;82.10
52245;DHT22;55759;51.586;-1.758;2023-07-13T00:13:06;15.80;81.80
52245;DHT22;55759;51.586;-1.758;2023-07-13T00:15:35;15.80;81.80
52245;DHT22;55759;51.586;-1.758;2023-07-13T00:18:01;15.90;81.60
52245;DHT22;55759;51.586;-1.758;2023-07-13T00:20:27;15.80;81.70
52245;DHT22;55759;51.586;-1.758;2023-07-13T00:22:52;15.90;81.60
52245;DHT22;55759;51.586;-1.758;2023-07-13T00:25:19;15.80;82.00
52245;DHT22;55759;51.586;-1.758;2023-07-13T00:27:46;15.80;81.80
52245;DHT22;55759;51.586;-1.758;2023-07-13T00:30:14;15.80;82.40
52245;DHT22;55759;51.586;-1.758;2023-07-13T00:32:40;15.80;82.70
52245;DHT22;55759;51.586;-1.758;2023-07-13T00:35:06;15.70;81.90
52245;DHT22;55759;51.586;-1.758;2023-07-13T00:37:32;15.70;81.90
52245;DHT22;55759;51.586;-1.758;2023-07-13T00:39:58;15.60;82.20
52245;DHT22;55759;51.586;-1.758;2023-07-13T00:42:24;15.60;81.50
52245;DHT22;55759;51.586;-1.758;2023-07-13T00:47:35;15.60;82.40
52245;DHT22;55759;51.586;-1.758;2023-07-13T00:50:01;15.50;82.30
52245;DHT22;55759;51.586;-1.758;2023-07-13T00:52:28;15.50;82.70
52245;DHT22;55759;51.586;-1.758;2023-07-13T00:54:54;15.50;82.90
52245;DHT22;55759;51.586;-1.758;2023-07-13T00:57:20;15.50;82.90
52245;DHT22;55759;51.586;-1.758;2023-07-13T00:59:47;15.40;83.20
52245;DHT22;55759;51.586;-1.758;2023-07-13T01:02:14;15.40;83.20
52245;DHT22;55759;51.586;-1.758;2023-07-13T01:04:40;15.40;83.20
52245;DHT22;55759;51.586;-1.758;2023-07-13T01:07:09;15.30;83.50
52245;DHT22;55759;51.586;-1.758;2023-07-13T01:09:36;15.30;83.60
52245;DHT22;55759;51.586;-1.758;2023-07-13T01:12:01;15.30;83.20
52245;DHT22;55759;51.586;-1.758;2023-07-13T01:14:27;15.30;83.10
52245;DHT22;55759;51.586;-1.758;2023-07-13T01:16:53;15.20;82.70
52245;DHT22;55759;51.586;-1.758;2023-07-13T01:21:52;15.10;83.10
52245;DHT22;55759;51.586;-1.758;2023-07-13T01:24:17;15.10;83.30
52245;DHT22;55759;51.586;-1.758;2023-07-13T01:26:43;15.10;83.40
52245;DHT22;55759;51.586;-1.758;2023-07-13T01:29:09;15.10;83.60
52245;DHT22;55759;51.586;-1.758;2023-07-13T01:31:34;15.00;83.70
52245;DHT22;55759;51.586;-1.758;2023-07-13T01:34:00;15.00;84.00
52245;DHT22;55759;51.586;-1.758;2023-07-13T01:36:26;15.00;84.30
52245;DHT22;55759;51.586;-1.758;2023-07-13T01:38:51;15.00;84.50
52245;DHT22;55759;51.586;-1.758;2023-07-13T01:41:17;15.00;84.10
52245;DHT22;55759;51.586;-1.758;2023-07-13T01:43:43;15.00;84.00
52245;DHT22;55759;51.586;-1.758;2023-07-13T01:46:08;14.90;84.20
52245;DHT22;55759;51.586;-1.758;2023-07-13T01:48:34;14.80;84.50
52245;DHT22;55759;51.586;-1.758;2023-07-13T01:51:00;14.80;84.40
52245;DHT22;55759;51.586;-1.758;2023-07-13T01:53:25;14.70;83.50
52245;DHT22;55759;51.586;-1.758;2023-07-13T01:55:51;14.60;83.90
52245;DHT22;55759;51.586;-1.758;2023-07-13T01:58:16;14.60;84.10
52245;DHT22;55759;51.586;-1.758;2023-07-13T02:00:42;14.50;84.70
52245;DHT22;55759;51.586;-1.758;2023-07-13T02:03:07;14.60;84.20
52245;DHT22;55759;51.586;-1.758;2023-07-13T02:05:33;14.60;84.30
52245;DHT22;55759;51.586;-1.758;2023-07-13T02:07:59;14.60;84.00
52245;DHT22;55759;51.586;-1.758;2023-07-13T02:10:24;14.60;84.20
52245;DHT22;55759;51.586;-1.758;2023-07-13T02:12:50;14.60;83.10
52245;DHT22;55759;51.586;-1.758;2023-07-13T02:15:16;14.60;83.50
52245;DHT22;55759;51.586;-1.758;2023-07-13T02:17:42;14.60;83.30
52245;DHT22;55759;51.586;-1.758;2023-07-13T02:20:08;14.60;84.00
52245;DHT22;55759;51.586;-1.758;2023-07-13T02:22:34;14.50;84.40
52245;DHT22;55759;51.586;-1.758;2023-07-13T02:25:00;14.40;84.70
52245;DHT22;55759;51.586;-1.758;2023-07-13T02:27:26;14.30;84.80
52245;DHT22;55759;51.586;-1.758;2023-07-13T02:29:52;14.20;85.20
52245;DHT22;55759;51.586;-1.758;2023-07-13T02:32:17;14.20;85.60
52245;DHT22;55759;51.586;-1.758;2023-07-13T02:34:43;14.10;85.60
52245;DHT22;55759;51.586;-1.758;2023-07-13T02:37:09;14.10;85.40
52245;DHT22;55759;51.586;-1.758;2023-07-13T02:39:35;14.10;85.90
52245;DHT22;55759;51.586;-1.758;2023-07-13T02:42:00;14.10;86.00
52245;DHT22;55759;51.586;-1.758;2023-07-13T02:44:26;14.10;85.60
52245;DHT22;55759;51.586;-1.758;2023-07-13T02:46:52;14.10;85.60
52245;DHT22;55759;51.586;-1.758;2023-07-13T02:49:17;14.10;85.70
52245;DHT22;55759;51.586;-1.758;2023-07-13T02:51:43;14.10;86.00
52245;DHT22;55759;51.586;-1.758;2023-07-13T02:54:09;14.00;86.40
52245;DHT22;55759;51.586;-1.758;2023-07-13T02:56:35;13.90;86.60
52245;DHT22;55759;51.586;-1.758;2023-07-13T02:59:01;13.80;86.70
52245;DHT22;55759;51.586;-1.758;2023-07-13T03:01:27;13.70;87.00
52245;DHT22;55759;51.586;-1.758;2023-07-13T03:03:53;13.70;87.10
52245;DHT22;55759;51.586;-1.758;2023-07-13T03:06:19;13.60;87.40
52245;DHT22;55759;51.586;-1.758;2023-07-13T03:08:45;13.60;87.60
52245;DHT22;55759;51.586;-1.758;2023-07-13T03:11:12;13.60;87.90
52245;DHT22;55759;51.586;-1.758;2023-07-13T03:13:38;13.50;88.10
52245;DHT22;55759;51.586;-1.758;2023-07-13T03:16:04;13.60;88.10
52245;DHT22;55759;51.586;-1.758;2023-07-13T03:18:31;13.50;88.30
52245;DHT22;55759;51.586;-1.758;2023-07-13T03:20:56;13.60;88.20
52245;DHT22;55759;51.586;-1.758;2023-07-13T03:23:22;13.60;88.00
52245;DHT22;55759;51.586;-1.758;2023-07-13T03:25:48;13.50;88.20
52245;DHT22;55759;51.586;-1.758;2023-07-13T03:28:13;13.50;88.30
52245;DHT22;55759;51.586;-1.758;2023-07-13T03:30:40;13.50;88.30
52245;DHT22;55759;51.586;-1.758;2023-07-13T03:33:05;13.50;88.40
52245;DHT22;55759;51.586;-1.758;2023-07-13T03:35:31;13.60;88.10
52245;DHT22;55759;51.586;-1.758;2023-07-13T03:37:58;13.70;88.10
52245;DHT22;55759;51.586;-1.758;2023-07-13T03:40:24;13.70;87.60
52245;DHT22;55759;51.586;-1.758;2023-07-13T03:42:51;13.70;87.60
52245;DHT22;55759;51.586;-1.758;2023-07-13T03:45:16;13.70;87.30
52245;DHT22;55759;51.586;-1.758;2023-07-13T03:47:42;13.70;87.60
52245;DHT22;55759;51.586;-1.758;2023-07-13T03:50:07;13.60;87.80
52245;DHT22;55759;51.586;-1.758;2023-07-13T03:52:33;13.60;88.00
52245;DHT22;55759;51.586;-1.758;2023-07-13T03:54:59;13.60;88.10
52245;DHT22;55759;51.586;-1.758;2023-07-13T03:57:24;13.60;88.00
52245;DHT22;55759;51.586;-1.758;2023-07-13T03:59:50;13.70;88.10
52245;DHT22;55759;51.586;-1.758;2023-07-13T04:02:15;13.80;87.90
52245;DHT22;55759;51.586;-1.758;2023-07-13T04:04:41;13.80;87.80
52245;DHT22;55759;51.586;-1.758;2023-07-13T04:07:07;13.80;87.60
52245;DHT22;55759;51.586;-1.758;2023-07-13T04:09:33;13.70;87.80
52245;DHT22;55759;51.586;-1.758;2023-07-13T04:11:59;13.70;87.90
52245;DHT22;55759;51.586;-1.758;2023-07-13T04:14:24;13.70;87.90
52245;DHT22;55759;51.586;-1.758;2023-07-13T04:16:50;13.70;88.10
52245;DHT22;55759;51.586;-1.758;2023-07-13T04:19:16;13.70;88.20
52245;DHT22;55759;51.586;-1.758;2023-07-13T04:21:41;13.80;88.20
52245;DHT22;55759;51.586;-1.758;2023-07-13T04:24:07;13.80;88.10
52245;DHT22;55759;51.586;-1.758;2023-07-13T04:26:33;13.90;88.00
52245;DHT22;55759;51.586;-1.758;2023-07-13T04:29:01;13.90;88.00
52245;DHT22;55759;51.586;-1.758;2023-07-13T04:31:29;13.90;87.80
52245;DHT22;55759;51.586;-1.758;2023-07-13T04:33:55;13.80;87.80
52245;DHT22;55759;51.586;-1.758;2023-07-13T04:36:20;13.80;88.00
52245;DHT22;55759;51.586;-1.758;2023-07-13T04:38:46;13.80;88.20
52245;DHT22;55759;51.586;-1.758;2023-07-13T04:41:12;13.70;88.20
52245;DHT22;55759;51.586;-1.758;2023-07-13T04:43:38;13.70;88.40
52245;DHT22;55759;51.586;-1.758;2023-07-13T04:46:04;13.70;88.60
52245;DHT22;55759;51.586;-1.758;2023-07-13T04:48:31;13.70;88.60
52245;DHT22;55759;51.586;-1.758;2023-07-13T04:50:57;13.80;88.70
52245;DHT22;55759;51.586;-1.758;2023-07-13T04:53:23;13.80;88.70
52245;DHT22;55759;51.586;-1.758;2023-07-13T04:55:49;13.90;88.60
52245;DHT22;55759;51.586;-1.758;2023-07-13T04:58:14;14.00;88.50
52245;DHT22;55759;51.586;-1.758;2023-07-13T05:00:40;14.00;88.50
52245;DHT22;55759;51.586;-1.758;2023-07-13T05:03:06;14.10;88.30
52245;DHT22;55759;51.586;-1.758;2023-07-13T05:05:31;14.10;88.20
52245;DHT22;55759;51.586;-1.758;2023-07-13T05:07:57;14.10;88.10
52245;DHT22;55759;51.586;-1.758;2023-07-13T05:10:22;14.20;88.00
52245;DHT22;55759;51.586;-1.758;2023-07-13T05:12:49;14.30;87.80
52245;DHT22;55759;51.586;-1.758;2023-07-13T05:15:14;14.30;87.70
52245;DHT22;55759;51.586;-1.758;2023-07-13T05:17:40;14.40;87.40
52245;DHT22;55759;51.586;-1.758;2023-07-13T05:20:06;14.50;87.30
52245;DHT22;55759;51.586;-1.758;2023-07-13T05:22:32;14.60;87.30
52245;DHT22;55759;51.586;-1.758;2023-07-13T05:25:00;14.60;86.90
52245;DHT22;55759;51.586;-1.758;2023-07-13T05:27:26;14.60;86.70
52245;DHT22;55759;51.586;-1.758;2023-07-13T05:29:52;14.60;86.60
52245;DHT22;55759;51.586;-1.758;2023-07-13T05:32:17;14.50;86.60
52245;DHT22;55759;51.586;-1.758;2023-07-13T05:34:43;14.60;86.70
52245;DHT22;55759;51.586;-1.758;2023-07-13T05:37:09;14.60;86.70
52245;DHT22;55759;51.586;-1.758;2023-07-13T05:39:34;14.60;86.40
52245;DHT22;55759;51.586;-1.758;2023-07-13T05:42:00;14.70;86.40
52245;DHT22;55759;51.586;-1.758;2023-07-13T05:44:26;14.80;86.60
52245;DHT22;55759;51.586;-1.758;2023-07-13T05:46:52;14.90;86.50
52245;DHT22;55759;51.586;-1.758;2023-07-13T05:49:17;15.00;86.30
52245;DHT22;55759;51.586;-1.758;2023-07-13T05:51:43;15.10;86.00
52245;DHT22;55759;51.586;-1.758;2023-07-13T05:54:09;15.30;85.50
52245;DHT22;55759;51.586;-1.758;2023-07-13T05:56:34;15.40;85.60
52245;DHT22;55759;51.586;-1.758;2023-07-13T05:59:00;15.60;84.70
52245;DHT22;55759;51.586;-1.758;2023-07-13T06:01:25;15.80;84.20
52245;DHT22;55759;51.586;-1.758;2023-07-13T06:03:51;15.80;83.60
52245;DHT22;55759;51.586;-1.758;2023-07-13T06:06:17;15.90;83.30
52245;DHT22;55759;51.586;-1.758;2023-07-13T06:08:42;15.90;83.40
52245;DHT22;55759;51.586;-1.758;2023-07-13T06:11:17;16.00;83.30
52245;DHT22;55759;51.586;-1.758;2023-07-13T06:13:43;16.10;83.40
52245;DHT22;55759;51.586;-1.758;2023-07-13T06:16:09;16.00;82.80
52245;DHT22;55759;51.586;-1.758;2023-07-13T06:18:36;16.00;83.20
52245;DHT22;55759;51.586;-1.758;2023-07-13T06:21:09;15.90;83.10
52245;DHT22;55759;51.586;-1.758;2023-07-13T06:23:35;15.90;83.20
52245;DHT22;55759;51.586;-1.758;2023-07-13T06:26:03;15.80;83.80
52245;DHT22;55759;51.586;-1.758;2023-07-13T06:28:28;15.90;84.00
52245;DHT22;55759;51.586;-1.758;2023-07-13T06:30:55;16.00;83.70
52245;DHT22;55759;51.586;-1.758;2023-07-13T06:33:21;16.10;83.70
52245;DHT22;55759;51.586;-1.758;2023-07-13T06:35:46;16.10;84.00
52245;DHT22;55759;51.586;-1.758;2023-07-13T06:38:12;16.20;83.40
52245;DHT22;55759;51.586;-1.758;2023-07-13T06:40:37;16.20;83.00
52245;DHT22;55759;51.586;-1.758;2023-07-13T06:43:03;16.20;82.70
52245;DHT22;55759;51.586;-1.758;2023-07-13T06:45:29;16.30;82.50
52245;DHT22;55759;51.586;-1.758;2023-07-13T06:47:54;16.30;82.40
52245;DHT22;55759;51.586;-1.758;2023-07-13T06:50:20;16.40;82.40
52245;DHT22;55759;51.586;-1.758;2023-07-13T06:52:46;16.40;82.60
52245;DHT22;55759;51.586;-1.758;2023-07-13T06:55:11;16.40;82.80
52245;DHT22;55759;51.586;-1.758;2023-07-13T06:57:37;16.40;82.00
52245;DHT22;55759;51.586;-1.758;2023-07-13T07:00:03;16.50;82.50
52245;DHT22;55759;51.586;-1.758;2023-07-13T07:02:28;16.60;82.60
52245;DHT22;55759;51.586;-1.758;2023-07-13T07:04:54;16.60;82.00
52245;DHT22;55759;51.586;-1.758;2023-07-13T07:07:20;16.70;82.10
52245;DHT22;55759;51.586;-1.758;2023-07-13T07:09:48;16.80;81.10
52245;DHT22;55759;51.586;-1.758;2023-07-13T07:12:14;16.90;80.80
52245;DHT22;55759;51.586;-1.758;2023-07-13T07:14:39;16.90;80.80
52245;DHT22;55759;51.586;-1.758;2023-07-13T07:17:05;17.00;80.70
52245;DHT22;55759;51.586;-1.758;2023-07-13T07:19:30;17.10;80.60
52245;DHT22;55759;51.586;-1.758;2023-07-13T07:21:56;17.30;81.30
52245;DHT22;55759;51.586;-1.758;2023-07-13T07:24:22;17.50;80.70
52245;DHT22;55759;51.586;-1.758;2023-07-13T07:26:47;17.60;79.60
52245;DHT22;55759;51.586;-1.758;2023-07-13T07:29:13;17.80;78.90
52245;DHT22;55759;51.586;-1.758;2023-07-13T07:31:38;17.90;77.90
52245;DHT22;55759;51.586;-1.758;2023-07-13T07:34:04;18.10;78.40
52245;DHT22;55759;51.586;-1.758;2023-07-13T07:36:29;18.10;77.40
52245;DHT22;55759;51.586;-1.758;2023-07-13T07:38:55;18.20;77.80
52245;DHT22;55759;51.586;-1.758;2023-07-13T07:41:20;18.30;77.20
52245;DHT22;55759;51.586;-1.758;2023-07-13T07:43:46;18.40;77.10
52245;DHT22;55759;51.586;-1.758;2023-07-13T07:46:12;18.50;75.40
52245;DHT22;55759;51.586;-1.758;2023-07-13T07:48:38;18.60;75.90
52245;DHT22;55759;51.586;-1.758;2023-07-13T07:51:03;18.90;75.20
52245;DHT22;55759;51.586;-1.758;2023-07-13T07:53:29;19.20;72.90
52245;DHT22;55759;51.586;-1.758;2023-07-13T07:55:55;19.60;73.50
52245;DHT22;55759;51.586;-1.758;2023-07-13T07:58:21;19.90;71.00
52245;DHT22;55759;51.586;-1.758;2023-07-13T08:00:46;20.20;69.90
52245;DHT22;55759;51.586;-1.758;2023-07-13T08:03:12;20.40;69.60
52245;DHT22;55759;51.586;-1.758;2023-07-13T08:05:38;20.70;67.90
52245;DHT22;55759;51.586;-1.758;2023-07-13T08:08:03;20.80;68.10
52245;DHT22;55759;51.586;-1.758;2023-07-13T08:10:29;20.80;67.80
52245;DHT22;55759;51.586;-1.758;2023-07-13T08:12:54;20.90;66.10
52245;DHT22;55759;51.586;-1.758;2023-07-13T08:15:20;20.90;66.40
52245;DHT22;55759;51.586;-1.758;2023-07-13T08:17:47;20.90;67.50
52245;DHT22;55759;51.586;-1.758;2023-07-13T08:20:13;20.90;66.20
52245;DHT22;55759;51.586;-1.758;2023-07-13T08:22:39;20.80;66.00
52245;DHT22;55759;51.586;-1.758;2023-07-13T08:25:04;20.70;66.70
52245;DHT22;55759;51.586;-1.758;2023-07-13T08:27:31;20.70;67.30
52245;DHT22;55759;51.586;-1.758;2023-07-13T08:29:56;20.80;66.90
52245;DHT22;55759;51.586;-1.758;2023-07-13T08:32:22;20.80;66.80
52245;DHT22;55759;51.586;-1.758;2023-07-13T08:34:48;20.70;66.30
52245;DHT22;55759;51.586;-1.758;2023-07-13T08:37:14;20.70;67.30
52245;DHT22;55759;51.586;-1.758;2023-07-13T09:32:51;21.40;65.70
52245;DHT22;55759;51.586;-1.758;2023-07-13T09:35:19;21.50;65.80
52245;DHT22;55759;51.586;-1.758;2023-07-13T09:37:48;21.50;65.50
52245;DHT22;55759;51.586;-1.758;2023-07-13T09:40:22;21.40;64.30
52245;DHT22;55759;51.586;-1.758;2023-07-13T09:42:52;21.30;63.00
52245;DHT22;55759;51.586;-1.758;2023-07-13T09:45:28;21.10;62.10
52245;DHT22;55759;51.586;-1.758;2023-07-13T09:48:04;21.00;63.90
52245;DHT22;55759;51.586;-1.758;2023-07-13T09:50:30;20.90;64.10
52245;DHT22;55759;51.586;-1.758;2023-07-13T09:52:56;21.10;64.30
52245;DHT22;55759;51.586;-1.758;2023-07-13T09:57:55;21.60;67.00
52245;DHT22;55759;51.586;-1.758;2023-07-13T10:00:25;21.90;64.20
52245;DHT22;55759;51.586;-1.758;2023-07-13T10:03:04;22.10;62.50
52245;DHT22;55759;51.586;-1.758;2023-07-13T10:05:38;22.30;61.60
52245;DHT22;55759;51.586;-1.758;2023-07-13T10:08:04;22.40;60.50
52245;DHT22;55759;51.586;-1.758;2023-07-13T10:10:33;22.50;60.10
52245;DHT22;55759;51.586;-1.758;2023-07-13T10:13:01;22.60;60.50
52245;DHT22;55759;51.586;-1.758;2023-07-13T10:15:29;22.70;58.60
52245;DHT22;55759;51.586;-1.758;2023-07-13T10:17:58;22.70;58.30
52245;DHT22;55759;51.586;-1.758;2023-07-13T10:20:24;22.70;59.50
52245;DHT22;55759;51.586;-1.758;2023-07-13T10:22:52;22.70;59.40
52245;DHT22;55759;51.586;-1.758;2023-07-13T10:25:22;22.80;58.00
52245;DHT22;55759;51.586;-1.758;2023-07-13T10:27:52;22.80;58.90
52245;DHT22;55759;51.586;-1.758;2023-07-13T10:30:22;22.90;56.70
52245;DHT22;55759;51.586;-1.758;2023-07-13T10:32:50;22.90;58.50
52245;DHT22;55759;51.586;-1.758;2023-07-13T10:35:18;22.90;59.10
52245;DHT22;55759;51.586;-1.758;2023-07-13T10:37:49;22.80;59.50
52245;DHT22;55759;51.586;-1.758;2023-07-13T10:40:19;22.60;60.10
52245;DHT22;55759;51.586;-1.758;2023-07-13T10:42:46;22.50;61.70
52245;DHT22;55759;51.586;-1.758;2023-07-13T10:45:14;22.40;61.50
52245;DHT22;55759;51.586;-1.758;2023-07-13T10:47:41;22.30;62.00
52245;DHT22;55759;51.586;-1.758;2023-07-13T10:50:07;22.30;62.10
52245;DHT22;55759;51.586;-1.758;2023-07-13T10:57:59;22.10;60.30
52245;DHT22;55759;51.586;-1.758;2023-07-13T11:00:32;22.10;61.10
52245;DHT22;55759;51.586;-1.758;2023-07-13T11:02:59;21.90;60.40
52245;DHT22;55759;51.586;-1.758;2023-07-13T11:05:32;21.70;62.40
52245;DHT22;55759;51.586;-1.758;2023-07-13T11:08:03;21.60;64.10
52245;DHT22;55759;51.586;-1.758;2023-07-13T11:15:58;21.50;64.60
52245;DHT22;55759;51.586;-1.758;2023-07-13T11:18:24;21.30;66.20
52245;DHT22;55759;51.586;-1.758;2023-07-13T11:20:50;20.90;66.00
52245;DHT22;55759;51.586;-1.758;2023-07-13T11:23:18;20.50;68.20
52245;DHT22;55759;51.586;-1.758;2023-07-13T11:25:44;20.00;71.90
52245;DHT22;55759;51.586;-1.758;2023-07-13T11:30:36;19.10;77.60
52245;DHT22;55759;51.586;-1.758;2023-07-13T11:35:51;18.70;81.80
52245;DHT22;55759;51.586;-1.758;2023-07-13T11:38:31;18.60;82.20
52245;DHT22;55759;51.586;-1.758;2023-07-13T11:40:58;18.90;83.90
52245;DHT22;55759;51.586;-1.758;2023-07-13T11:43:28;19.60;83.50
52245;DHT22;55759;51.586;-1.758;2023-07-13T11:45:54;20.30;78.80
52245;DHT22;55759;51.586;-1.758;2023-07-13T11:48:26;20.70;77.50
52245;DHT22;55759;51.586;-1.758;2023-07-13T11:51:00;21.30;76.30
52245;DHT22;55759;51.586;-1.758;2023-07-13T11:53:50;21.90;73.20
52245;DHT22;55759;51.586;-1.758;2023-07-13T11:56:14;22.50;67.10
52245;DHT22;55759;51.586;-1.758;2023-07-13T11:59:36;22.90;65.90
52245;DHT22;55759;51.586;-1.758;2023-07-13T12:01:57;23.60;63.10
52245;DHT22;55759;51.586;-1.758;2023-07-13T12:04:24;24.00;61.90
52245;DHT22;55759;51.586;-1.758;2023-07-13T12:07:23;24.20;60.20
52245;DHT22;55759;51.586;-1.758;2023-07-13T12:09:42;24.50;63.70
52245;DHT22;55759;51.586;-1.758;2023-07-13T12:12:18;25.20;61.00
52245;DHT22;55759;51.586;-1.758;2023-07-13T12:14:44;26.70;57.50
52245;DHT22;55759;51.586;-1.758;2023-07-13T12:17:18;28.20;52.80
52245;DHT22;55759;51.586;-1.758;2023-07-13T12:19:44;31.00;49.20
52245;DHT22;55759;51.586;-1.758;2023-07-13T12:22:12;33.60;43.00
52245;DHT22;55759;51.586;-1.758;2023-07-13T12:24:38;35.00;40.00
52245;DHT22;55759;51.586;-1.758;2023-07-13T12:29:58;36.60;36.80
52245;DHT22;55759;51.586;-1.758;2023-07-13T12:32:27;37.80;33.00
52245;DHT22;55759;51.586;-1.758;2023-07-13T12:34:55;37.70;31.20
52245;DHT22;55759;51.586;-1.758;2023-07-13T12:37:21;37.70;30.80
52245;DHT22;55759;51.586;-1.758;2023-07-13T12:39:47;38.20;31.00
52245;DHT22;55759;51.586;-1.758;2023-07-13T12:42:19;39.50;30.30
52245;DHT22;55759;51.586;-1.758;2023-07-13T12:44:50;40.90;29.10
52245;DHT22;55759;51.586;-1.758;2023-07-13T12:47:19;41.80;26.80
52245;DHT22;55759;51.586;-1.758;2023-07-13T12:49:50;42.30;26.70
52245;DHT22;55759;51.586;-1.758;2023-07-13T12:52:34;42.40;23.70
52245;DHT22;55759;51.586;-1.758;2023-07-13T12:55:11;41.20;27.00
52245;DHT22;55759;51.586;-1.758;2023-07-13T12:57:50;40.40;29.30
52245;DHT22;55759;51.586;-1.758;2023-07-13T13:00:37;38.80;27.70
52245;DHT22;55759;51.586;-1.758;2023-07-13T13:03:11;36.90;29.50
52245;DHT22;55759;51.586;-1.758;2023-07-13T13:05:41;35.40;34.20
52245;DHT22;55759;51.586;-1.758;2023-07-13T13:08:10;34.50;32.20
52245;DHT22;55759;51.586;-1.758;2023-07-13T13:10:36;33.00;36.90
52245;DHT22;55759;51.586;-1.758;2023-07-13T13:13:02;31.50;38.00
52245;DHT22;55759;51.586;-1.758;2023-07-13T13:15:28;30.20;41.30
52245;DHT22;55759;51.586;-1.758;2023-07-13T13:17:55;29.80;42.70
52245;DHT22;55759;51.586;-1.758;2023-07-13T13:20:24;31.00;40.20
52245;DHT22;55759;51.586;-1.758;2023-07-13T13:22:51;33.40;38.80
52245;DHT22;55759;51.586;-1.758;2023-07-13T13:25:19;35.00;32.60
52245;DHT22;55759;51.586;-1.758;2023-07-13T13:27:47;34.80;32.30
52245;DHT22;55759;51.586;-1.758;2023-07-13T13:30:16;33.80;30.40
52245;DHT22;55759;51.586;-1.758;2023-07-13T13:32:45;32.80;33.10
52245;DHT22;55759;51.586;-1.758;2023-07-13T13:35:16;32.10;33.50
52245;DHT22;55759;51.586;-1.758;2023-07-13T13:37:41;31.00;36.90
52245;DHT22;55759;51.586;-1.758;2023-07-13T13:40:28;30.30;37.30
52245;DHT22;55759;51.586;-1.758;2023-07-13T13:42:53;29.50;37.20
52245;DHT22;55759;51.586;-1.758;2023-07-13T13:45:20;29.10;40.60
52245;DHT22;55759;51.586;-1.758;2023-07-13T13:47:46;29.60;40.70
52245;DHT22;55759;51.586;-1.758;2023-07-13T13:50:14;30.30;41.60
52245;DHT22;55759;51.586;-1.758;2023-07-13T13:52:40;31.30;37.00
52245;DHT22;55759;51.586;-1.758;2023-07-13T13:55:17;32.80;37.50
52245;DHT22;55759;51.586;-1.758;2023-07-13T13:57:47;35.40;34.50
52245;DHT22;55759;51.586;-1.758;2023-07-13T14:00:13;37.00;31.20
52245;DHT22;55759;51.586;-1.758;2023-07-13T14:02:40;37.00;29.90
52245;DHT22;55759;51.586;-1.758;2023-07-13T14:05:09;35.80;30.20
52245;DHT22;55759;51.586;-1.758;2023-07-13T14:07:35;34.00;34.40
52245;DHT22;55759;51.586;-1.758;2023-07-13T14:10:01;33.80;35.70
52245;DHT22;55759;51.586;-1.758;2023-07-13T14:12:27;34.10;33.30
52245;DHT22;55759;51.586;-1.758;2023-07-13T14:14:54;34.20;33.90
52245;DHT22;55759;51.586;-1.758;2023-07-13T14:17:20;34.70;30.70
52245;DHT22;55759;51.586;-1.758;2023-07-13T14:19:47;34.90;33.00
52245;DHT22;55759;51.586;-1.758;2023-07-13T14:22:16;35.10;32.30
52245;DHT22;55759;51.586;-1.758;2023-07-13T14:24:42;34.60;34.30
52245;DHT22;55759;51.586;-1.758;2023-07-13T14:27:08;33.90;35.00
52245;DHT22;55759;51.586;-1.758;2023-07-13T14:29:34;32.50;37.40
52245;DHT22;55759;51.586;-1.758;2023-07-13T14:32:00;31.10;40.10
52245;DHT22;55759;51.586;-1.758;2023-07-13T14:34:25;30.20;40.70
52245;DHT22;55759;51.586;-1.758;2023-07-13T14:36:51;29.50;42.60
52245;DHT22;55759;51.586;-1.758;2023-07-13T14:39:18;29.00;44.00
52245;DHT22;55759;51.586;-1.758;2023-07-13T14:41:44;28.90;43.40
52245;DHT22;55759;51.586;-1.758;2023-07-13T14:44:31;28.40;46.10
52245;DHT22;55759;51.586;-1.758;2023-07-13T14:46:58;27.70;44.80
52245;DHT22;55759;51.586;-1.758;2023-07-13T14:49:34;27.60;45.70
52245;DHT22;55759;51.586;-1.758;2023-07-13T14:52:01;28.10;45.40
52245;DHT22;55759;51.586;-1.758;2023-07-13T14:54:27;28.20;43.30
52245;DHT22;55759;51.586;-1.758;2023-07-13T14:56:53;28.50;41.80
52245;DHT22;55759;51.586;-1.758;2023-07-13T14:59:18;28.30;43.10
52245;DHT22;55759;51.586;-1.758;2023-07-13T15:01:44;28.50;42.90
52245;DHT22;55759;51.586;-1.758;2023-07-13T15:04:10;28.50;42.00
52245;DHT22;55759;51.586;-1.758;2023-07-13T15:06:55;28.70;43.30
52245;DHT22;55759;51.586;-1.758;2023-07-13T15:09:21;28.90;43.40
52245;DHT22;55759;51.586;-1.758;2023-07-13T15:11:47;29.00;42.70
52245;DHT22;55759;51.586;-1.758;2023-07-13T15:14:12;29.10;41.20
52245;DHT22;55759;51.586;-1.758;2023-07-13T15:16:38;28.60;43.00
52245;DHT22;55759;51.586;-1.758;2023-07-13T15:19:04;28.00;44.50
52245;DHT22;55759;51.586;-1.758;2023-07-13T15:21:29;27.20;46.80
52245;DHT22;55759;51.586;-1.758;2023-07-13T15:24:00;26.60;48.70
52245;DHT22;55759;51.586;-1.758;2023-07-13T15:26:25;26.60;47.30
52245;DHT22;55759;51.586;-1.758;2023-07-13T15:28:51;27.00;46.80
52245;DHT22;55759;51.586;-1.758;2023-07-13T15:31:24;27.40;46.60
52245;DHT22;55759;51.586;-1.758;2023-07-13T15:33:53;27.80;43.00
52245;DHT22;55759;51.586;-1.758;2023-07-13T15:36:20;28.60;42.20
52245;DHT22;55759;51.586;-1.758;2023-07-13T15:38:46;29.30;41.70
52245;DHT22;55759;51.586;-1.758;2023-07-13T15:41:16;29.80;37.60
52245;DHT22;55759;51.586;-1.758;2023-07-13T15:43:42;30.60;36.20
52245;DHT22;55759;51.586;-1.758;2023-07-13T15:46:09;31.50;36.00
52245;DHT22;55759;51.586;-1.758;2023-07-13T15:48:34;31.70;33.90
52245;DHT22;55759;51.586;-1.758;2023-07-13T15:51:01;31.00;35.30
52245;DHT22;55759;51.586;-1.758;2023-07-13T15:53:31;30.20;39.10
52245;DHT22;55759;51.586;-1.758;2023-07-13T15:55:57;29.90;37.10
52245;DHT22;55759;51.586;-1.758;2023-07-13T15:58:23;30.70;39.80
52245;DHT22;55759;51.586;-1.758;2023-07-13T16:00:50;32.90;36.30
52245;DHT22;55759;51.586;-1.758;2023-07-13T16:03:17;33.30;33.40
52245;DHT22;55759;51.586;-1.758;2023-07-13T16:05:42;32.80;33.00
52245;DHT22;55759;51.586;-1.758;2023-07-13T16:08:22;33.70;35.50
52245;DHT22;55759;51.586;-1.758;2023-07-13T16:10:48;34.70;30.10
52245;DHT22;55759;51.586;-1.758;2023-07-13T16:13:14;35.30;32.50
52245;DHT22;55759;51.586;-1.758;2023-07-13T16:15:40;35.40;29.00
52245;DHT22;55759;51.586;-1.758;2023-07-13T16:18:13;35.70;29.60
52245;DHT22;55759;51.586;-1.758;2023-07-13T16:20:42;36.40;27.60
52245;DHT22;55759;51.586;-1.758;2023-07-13T16:23:08;36.10;28.20
52245;DHT22;55759;51.586;-1.758;2023-07-13T16:25:34;36.20;28.30
52245;DHT22;55759;51.586;-1.758;2023-07-13T16:28:00;36.00;28.90
52245;DHT22;55759;51.586;-1.758;2023-07-13T16:30:27;34.60;30.40
52245;DHT22;55759;51.586;-1.758;2023-07-13T16:32:58;33.60;35.10
52245;DHT22;55759;51.586;-1.758;2023-07-13T16:35:30;32.30;34.50